sensor_id;sensor_type;location;lat;lon;timestamp;temperature;humidity
43920;DHT22;29578;51.946;5.874;2022-09-17T00:00:22;11.70;80.20
43920;DHT22;29578;51.946;5.874;2022-09-17T00:02:50;11.70;80.20
43920;DHT22;29578;51.946;5.874;2022-09-17T00:05:21;11.80;80.20
43920;DHT22;29578;51.946;5.874;2022-09-17T00:07:48;11.90;80.10
43920;DHT22;29578;51.946;5.874;2022-09-17T00:10:14;11.80;80.00
43920;DHT22;29578;51.946;5.874;2022-09-17T00:12:40;11.80;79.90
43920;DHT22;29578;51.946;5.874;2022-09-17T00:15:06;11.90;79.90
43920;DHT22;29578;51.946;5.874;2022-09-17T00:17:32;11.90;79.90
43920;DHT22;29578;51.946;5.874;2022-09-17T00:19:58;11.90;79.90
43920;DHT22;29578;51.946;5.874;2022-09-17T00:22:24;11.80;79.80
43920;DHT22;29578;51.946;5.874;2022-09-17T00:24:49;11.80;79.90
43920;DHT22;29578;51.946;5.874;2022-09-17T00:27:15;11.80;80.00
43920;DHT22;29578;51.946;5.874;2022-09-17T00:29:41;11.90;80.10
43920;DHT22;29578;51.946;5.874;2022-09-17T00:32:07;11.80;80.20
43920;DHT22;29578;51.946;5.874;2022-09-17T00:34:33;11.80;80.10
43920;DHT22;29578;51.946;5.874;2022-09-17T00:36:58;11.80;80.10
43920;DHT22;29578;51.946;5.874;2022-09-17T00:39:24;11.80;80.10
43920;DHT22;29578;51.946;5.874;2022-09-17T00:41:49;11.80;80.00
43920;DHT22;29578;51.946;5.874;2022-09-17T00:47:24;11.80;80.10
43920;DHT22;29578;51.946;5.874;2022-09-17T00:49:55;11.80;80.10
43920;DHT22;29578;51.946;5.874;2022-09-17T00:52:27;11.80;80.10
43920;DHT22;29578;51.946;5.874;2022-09-17T00:55:02;11.80;80.00
43920;DHT22;29578;51.946;5.874;2022-09-17T00:57:30;11.80;80.10
43920;DHT22;29578;51.946;5.874;2022-09-17T00:59:56;11.80;80.20
43920;DHT22;29578;51.946;5.874;2022-09-17T01:02:22;11.80;80.30
43920;DHT22;29578;51.946;5.874;2022-09-17T01:04:48;11.80;80.30
43920;DHT22;29578;51.946;5.874;2022-09-17T01:07:32;11.80;80.40
43920;DHT22;29578;51.946;5.874;2022-09-17T01:10:33;11.80;80.40
43920;DHT22;29578;51.946;5.874;2022-09-17T01:13:12;11.80;80.50
43920;DHT22;29578;51.946;5.874;2022-09-17T01:16:03;11.80;80.50
43920;DHT22;29578;51.946;5.874;2022-09-17T01:18:50;11.70;80.50
43920;DHT22;29578;51.946;5.874;2022-09-17T01:21:45;11.70;80.60
43920;DHT22;29578;51.946;5.874;2022-09-17T01:33:13;11.70;81.40
43920;DHT22;29578;51.946;5.874;2022-09-17T01:44:54;11.60;81.30
43920;DHT22;29578;51.946;5.874;2022-09-17T01:47:30;11.60;81.40
43920;DHT22;29578;51.946;5.874;2022-09-17T01:50:03;11.60;81.50
43920;DHT22;29578;51.946;5.874;2022-09-17T01:52:33;11.60;81.60
43920;DHT22;29578;51.946;5.874;2022-09-17T01:55:04;11.50;81.70
43920;DHT22;29578;51.946;5.874;2022-09-17T01:57:35;11.50;81.70
43920;DHT22;29578;51.946;5.874;2022-09-17T02:00:11;11.50;81.80
43920;DHT22;29578;51.946;5.874;2022-09-17T02:02:47;11.50;82.00
43920;DHT22;29578;51.946;5.874;2022-09-17T02:05:23;11.40;82.00
43920;DHT22;29578;51.946;5.874;2022-09-17T02:07:57;11.40;82.10
43920;DHT22;29578;51.946;5.874;2022-09-17T02:10:30;11.40;82.20
43920;DHT22;29578;51.946;5.874;2022-09-17T02:13:04;11.40;82.40
43920;DHT22;29578;51.946;5.874;2022-09-17T02:15:37;11.30;82.40
43920;DHT22;29578;51.946;5.874;2022-09-17T02:18:21;11.30;82.40
43920;DHT22;29578;51.946;5.874;2022-09-17T02:21:02;11.30;82.50
43920;DHT22;29578;51.946;5.874;2022-09-17T02:23:35;11.30;82.60
43920;DHT22;29578;51.946;5.874;2022-09-17T02:26:14;11.20;82.70
43920;DHT22;29578;51.946;5.874;2022-09-17T02:28:46;11.30;82.90
43920;DHT22;29578;51.946;5.874;2022-09-17T02:31:13;11.20;82.80
43920;DHT22;29578;51.946;5.874;2022-09-17T02:33:46;11.20;82.90
43920;DHT22;29578;51.946;5.874;2022-09-17T02:36:14;11.10;82.90
43920;DHT22;29578;51.946;5.874;2022-09-17T02:38:43;11.20;83.00
43920;DHT22;29578;51.946;5.874;2022-09-17T02:41:25;11.10;82.90
43920;DHT22;29578;51.946;5.874;2022-09-17T02:44:13;11.00;83.10
43920;DHT22;29578;51.946;5.874;2022-09-17T02:46:58;11.00;83.20
43920;DHT22;29578;51.946;5.874;2022-09-17T02:49:57;11.00;83.20
43920;DHT22;29578;51.946;5.874;2022-09-17T02:58:31;10.90;83.30
43920;DHT22;29578;51.946;5.874;2022-09-17T03:01:03;10.80;83.20
43920;DHT22;29578;51.946;5.874;2022-09-17T03:03:37;10.80;83.30
43920;DHT22;29578;51.946;5.874;2022-09-17T03:06:04;10.80;83.40
43920;DHT22;29578;51.946;5.874;2022-09-17T03:08:34;10.70;83.40
43920;DHT22;29578;51.946;5.874;2022-09-17T03:11:01;10.60;83.40
43920;DHT22;29578;51.946;5.874;2022-09-17T03:13:29;10.70;83.50
43920;DHT22;29578;51.946;5.874;2022-09-17T03:15:55;10.60;83.50
43920;DHT22;29578;51.946;5.874;2022-09-17T03:18:22;10.60;83.60
43920;DHT22;29578;51.946;5.874;2022-09-17T03:20:48;10.60;83.70
43920;DHT22;29578;51.946;5.874;2022-09-17T03:23:14;10.50;83.70
43920;DHT22;29578;51.946;5.874;2022-09-17T03:25:40;10.60;83.80
43920;DHT22;29578;51.946;5.874;2022-09-17T03:28:06;10.50;83.80
43920;DHT22;29578;51.946;5.874;2022-09-17T03:30:32;10.50;83.90
43920;DHT22;29578;51.946;5.874;2022-09-17T03:32:58;10.40;83.90
43920;DHT22;29578;51.946;5.874;2022-09-17T03:35:23;10.40;83.90
43920;DHT22;29578;51.946;5.874;2022-09-17T03:37:49;10.40;83.90
43920;DHT22;29578;51.946;5.874;2022-09-17T03:40:15;10.40;84.00
43920;DHT22;29578;51.946;5.874;2022-09-17T03:42:41;10.30;84.00
43920;DHT22;29578;51.946;5.874;2022-09-17T03:45:07;10.30;84.00
43920;DHT22;29578;51.946;5.874;2022-09-17T03:47:33;10.30;84.00
43920;DHT22;29578;51.946;5.874;2022-09-17T03:49:58;10.30;84.00
43920;DHT22;29578;51.946;5.874;2022-09-17T03:52:24;10.20;83.90
43920;DHT22;29578;51.946;5.874;2022-09-17T03:54:50;10.20;84.00
43920;DHT22;29578;51.946;5.874;2022-09-17T03:57:16;10.20;84.00
43920;DHT22;29578;51.946;5.874;2022-09-17T03:59:41;10.20;84.10
43920;DHT22;29578;51.946;5.874;2022-09-17T04:02:07;10.10;84.10
43920;DHT22;29578;51.946;5.874;2022-09-17T04:04:33;10.10;84.00
43920;DHT22;29578;51.946;5.874;2022-09-17T04:06:59;10.10;84.00
43920;DHT22;29578;51.946;5.874;2022-09-17T04:09:24;10.10;84.10
43920;DHT22;29578;51.946;5.874;2022-09-17T04:11:50;10.10;84.10
43920;DHT22;29578;51.946;5.874;2022-09-17T04:14:16;10.10;84.10
43920;DHT22;29578;51.946;5.874;2022-09-17T04:16:41;10.10;84.10
43920;DHT22;29578;51.946;5.874;2022-09-17T04:19:07;10.10;84.10
43920;DHT22;29578;51.946;5.874;2022-09-17T04:21:33;10.00;84.10
43920;DHT22;29578;51.946;5.874;2022-09-17T04:23:59;10.00;84.10
43920;DHT22;29578;51.946;5.874;2022-09-17T04:26:25;10.00;84.10
43920;DHT22;29578;51.946;5.874;2022-09-17T04:28:53;10.00;84.10
43920;DHT22;29578;51.946;5.874;2022-09-17T04:31:19;10.00;84.10
43920;DHT22;29578;51.946;5.874;2022-09-17T04:33:47;10.00;84.10
43920;DHT22;29578;51.946;5.874;2022-09-17T04:36:12;10.00;84.10
43920;DHT22;29578;51.946;5.874;2022-09-17T04:38:38;10.00;84.10
43920;DHT22;29578;51.946;5.874;2022-09-17T04:41:06;9.90;84.10
43920;DHT22;29578;51.946;5.874;2022-09-17T04:43:32;10.00;84.20
43920;DHT22;29578;51.946;5.874;2022-09-17T04:45:58;10.00;84.20
43920;DHT22;29578;51.946;5.874;2022-09-17T04:48:24;9.90;84.20
43920;DHT22;29578;51.946;5.874;2022-09-17T04:50:49;9.90;84.20
43920;DHT22;29578;51.946;5.874;2022-09-17T04:53:15;10.00;84.30
43920;DHT22;29578;51.946;5.874;2022-09-17T04:55:42;9.90;84.20
43920;DHT22;29578;51.946;5.874;2022-09-17T04:58:08;9.90;84.20
43920;DHT22;29578;51.946;5.874;2022-09-17T05:00:34;9.90;84.20
43920;DHT22;29578;51.946;5.874;2022-09-17T05:03:00;9.80;84.20
43920;DHT22;29578;51.946;5.874;2022-09-17T05:05:26;9.90;84.30
43920;DHT22;29578;51.946;5.874;2022-09-17T05:07:51;9.90;84.30
43920;DHT22;29578;51.946;5.874;2022-09-17T05:10:19;9.80;84.30
43920;DHT22;29578;51.946;5.874;2022-09-17T05:12:48;9.80;84.90
43920;DHT22;29578;51.946;5.874;2022-09-17T05:15:13;9.80;84.30
43920;DHT22;29578;51.946;5.874;2022-09-17T05:17:39;9.90;84.40
43920;DHT22;29578;51.946;5.874;2022-09-17T05:20:05;9.90;84.40
43920;DHT22;29578;51.946;5.874;2022-09-17T05:22:31;9.80;84.30
43920;DHT22;29578;51.946;5.874;2022-09-17T05:24:57;9.80;84.20
43920;DHT22;29578;51.946;5.874;2022-09-17T05:27:23;9.80;84.20
43920;DHT22;29578;51.946;5.874;2022-09-17T05:29:49;9.80;84.30
43920;DHT22;29578;51.946;5.874;2022-09-17T05:32:15;9.80;84.30
43920;DHT22;29578;51.946;5.874;2022-09-17T05:34:40;9.80;84.30
43920;DHT22;29578;51.946;5.874;2022-09-17T05:37:09;9.90;84.40
43920;DHT22;29578;51.946;5.874;2022-09-17T05:39:35;9.80;84.40
43920;DHT22;29578;51.946;5.874;2022-09-17T05:42:01;9.80;84.40
43920;DHT22;29578;51.946;5.874;2022-09-17T05:44:27;9.80;84.40
43920;DHT22;29578;51.946;5.874;2022-09-17T05:46:53;9.80;84.40
43920;DHT22;29578;51.946;5.874;2022-09-17T05:49:19;9.70;84.40
43920;DHT22;29578;51.946;5.874;2022-09-17T05:51:45;9.80;84.40
43920;DHT22;29578;51.946;5.874;2022-09-17T05:54:10;9.70;84.40
43920;DHT22;29578;51.946;5.874;2022-09-17T05:56:36;9.70;84.40
43920;DHT22;29578;51.946;5.874;2022-09-17T05:59:02;9.80;84.50
43920;DHT22;29578;51.946;5.874;2022-09-17T06:01:28;9.80;84.50
43920;DHT22;29578;51.946;5.874;2022-09-17T06:03:54;9.70;84.40
43920;DHT22;29578;51.946;5.874;2022-09-17T06:06:20;9.80;84.40
43920;DHT22;29578;51.946;5.874;2022-09-17T06:08:45;9.80;84.40
43920;DHT22;29578;51.946;5.874;2022-09-17T06:11:11;9.80;84.40
43920;DHT22;29578;51.946;5.874;2022-09-17T06:13:37;9.80;84.40
43920;DHT22;29578;51.946;5.874;2022-09-17T06:16:03;9.80;84.40
43920;DHT22;29578;51.946;5.874;2022-09-17T06:18:29;9.80;84.40
43920;DHT22;29578;51.946;5.874;2022-09-17T06:20:58;9.80;84.40
43920;DHT22;29578;51.946;5.874;2022-09-17T06:23:25;9.80;84.40
43920;DHT22;29578;51.946;5.874;2022-09-17T06:25:55;9.80;84.40
43920;DHT22;29578;51.946;5.874;2022-09-17T06:28:21;9.90;84.50
43920;DHT22;29578;51.946;5.874;2022-09-17T06:30:47;9.90;84.40
43920;DHT22;29578;51.946;5.874;2022-09-17T06:33:13;9.90;84.30
43920;DHT22;29578;51.946;5.874;2022-09-17T06:35:39;9.90;84.30
43920;DHT22;29578;51.946;5.874;2022-09-17T06:38:05;10.00;84.30
43920;DHT22;29578;51.946;5.874;2022-09-17T06:40:31;10.00;84.10
43920;DHT22;29578;51.946;5.874;2022-09-17T06:43:01;10.10;84.10
43920;DHT22;29578;51.946;5.874;2022-09-17T06:45:27;10.20;84.00
43920;DHT22;29578;51.946;5.874;2022-09-17T06:47:53;10.30;84.30
43920;DHT22;29578;51.946;5.874;2022-09-17T06:50:19;10.30;83.50
43920;DHT22;29578;51.946;5.874;2022-09-17T06:52:49;10.40;83.30
43920;DHT22;29578;51.946;5.874;2022-09-17T06:55:15;10.40;83.20
43920;DHT22;29578;51.946;5.874;2022-09-17T06:57:41;10.50;83.00
43920;DHT22;29578;51.946;5.874;2022-09-17T07:00:07;10.50;82.90
43920;DHT22;29578;51.946;5.874;2022-09-17T07:02:34;10.60;82.90
43920;DHT22;29578;51.946;5.874;2022-09-17T07:05:00;10.70;82.80
43920;DHT22;29578;51.946;5.874;2022-09-17T07:07:26;10.70;82.70
43920;DHT22;29578;51.946;5.874;2022-09-17T07:09:51;10.80;82.60
43920;DHT22;29578;51.946;5.874;2022-09-17T07:12:19;10.80;82.40
43920;DHT22;29578;51.946;5.874;2022-09-17T07:14:44;10.90;82.40
43920;DHT22;29578;51.946;5.874;2022-09-17T07:17:12;11.00;82.40
43920;DHT22;29578;51.946;5.874;2022-09-17T07:19:38;11.00;82.30
43920;DHT22;29578;51.946;5.874;2022-09-17T07:22:04;11.00;82.20
43920;DHT22;29578;51.946;5.874;2022-09-17T07:24:29;11.10;82.10
43920;DHT22;29578;51.946;5.874;2022-09-17T07:26:55;11.20;82.00
43920;DHT22;29578;51.946;5.874;2022-09-17T07:29:21;11.20;82.00
43920;DHT22;29578;51.946;5.874;2022-09-17T07:31:48;11.30;81.90
43920;DHT22;29578;51.946;5.874;2022-09-17T07:34:13;11.30;81.80
43920;DHT22;29578;51.946;5.874;2022-09-17T07:36:39;11.40;81.80
43920;DHT22;29578;51.946;5.874;2022-09-17T07:39:05;11.50;81.80
43920;DHT22;29578;51.946;5.874;2022-09-17T07:41:31;11.50;81.70
43920;DHT22;29578;51.946;5.874;2022-09-17T07:43:58;11.60;81.60
43920;DHT22;29578;51.946;5.874;2022-09-17T07:46:27;11.60;81.50
43920;DHT22;29578;51.946;5.874;2022-09-17T07:48:53;11.60;81.30
43920;DHT22;29578;51.946;5.874;2022-09-17T07:51:21;11.90;81.40
43920;DHT22;29578;51.946;5.874;2022-09-17T07:53:51;11.90;81.20
43920;DHT22;29578;51.946;5.874;2022-09-17T07:56:17;12.00;81.10
43920;DHT22;29578;51.946;5.874;2022-09-17T07:58:43;12.00;81.00
43920;DHT22;29578;51.946;5.874;2022-09-17T08:01:11;12.20;81.00
43920;DHT22;29578;51.946;5.874;2022-09-17T08:03:38;12.20;80.70
43920;DHT22;29578;51.946;5.874;2022-09-17T08:06:06;12.30;80.60
43920;DHT22;29578;51.946;5.874;2022-09-17T08:08:33;12.50;80.30
43920;DHT22;29578;51.946;5.874;2022-09-17T08:11:09;12.60;80.10
43920;DHT22;29578;51.946;5.874;2022-09-17T08:13:35;12.70;80.00
43920;DHT22;29578;51.946;5.874;2022-09-17T08:16:04;12.70;79.80
43920;DHT22;29578;51.946;5.874;2022-09-17T08:18:30;12.80;79.70
43920;DHT22;29578;51.946;5.874;2022-09-17T08:20:59;13.00;79.60
43920;DHT22;29578;51.946;5.874;2022-09-17T08:23:25;13.10;79.40
43920;DHT22;29578;51.946;5.874;2022-09-17T08:25:53;13.20;79.20
43920;DHT22;29578;51.946;5.874;2022-09-17T08:28:20;13.30;79.00
43920;DHT22;29578;51.946;5.874;2022-09-17T08:30:46;13.30;78.80
43920;DHT22;29578;51.946;5.874;2022-09-17T08:33:14;13.50;78.70
43920;DHT22;29578;51.946;5.874;2022-09-17T08:35:40;13.60;78.50
43920;DHT22;29578;51.946;5.874;2022-09-17T08:38:06;13.50;78.30
43920;DHT22;29578;51.946;5.874;2022-09-17T08:40:35;13.60;78.30
43920;DHT22;29578;51.946;5.874;2022-09-17T08:43:04;13.70;78.30
43920;DHT22;29578;51.946;5.874;2022-09-17T08:45:30;13.70;78.20
43920;DHT22;29578;51.946;5.874;2022-09-17T08:48:02;13.80;78.20
43920;DHT22;29578;51.946;5.874;2022-09-17T08:50:32;13.90;77.90
43920;DHT22;29578;51.946;5.874;2022-09-17T08:53:18;14.00;77.80
43920;DHT22;29578;51.946;5.874;2022-09-17T08:56:00;14.00;77.70
43920;DHT22;29578;51.946;5.874;2022-09-17T08:58:36;14.10;77.50
43920;DHT22;29578;51.946;5.874;2022-09-17T09:01:11;14.20;77.20
43920;DHT22;29578;51.946;5.874;2022-09-17T09:03:57;14.10;77.60
43920;DHT22;29578;51.946;5.874;2022-09-17T09:06:32;14.10;77.00
43920;DHT22;29578;51.946;5.874;2022-09-17T09:09:02;14.20;77.00
43920;DHT22;29578;51.946;5.874;2022-09-17T09:11:30;14.20;77.00
43920;DHT22;29578;51.946;5.874;2022-09-17T09:14:04;14.10;77.20
43920;DHT22;29578;51.946;5.874;2022-09-17T09:16:37;14.20;77.20
43920;DHT22;29578;51.946;5.874;2022-09-17T09:19:19;14.20;77.00
43920;DHT22;29578;51.946;5.874;2022-09-17T09:25:04;14.10;76.80
43920;DHT22;29578;51.946;5.874;2022-09-17T09:27:42;14.10;76.80
43920;DHT22;29578;51.946;5.874;2022-09-17T09:30:12;14.10;76.60
43920;DHT22;29578;51.946;5.874;2022-09-17T09:32:59;14.20;76.40
43920;DHT22;29578;51.946;5.874;2022-09-17T09:35:28;14.20;76.30
43920;DHT22;29578;51.946;5.874;2022-09-17T09:40:57;14.30;76.00
43920;DHT22;29578;51.946;5.874;2022-09-17T09:43:40;14.30;76.00
43920;DHT22;29578;51.946;5.874;2022-09-17T09:46:35;14.30;75.80
43920;DHT22;29578;51.946;5.874;2022-09-17T09:49:16;14.40;75.50
43920;DHT22;29578;51.946;5.874;2022-09-17T09:52:04;14.40;75.30
43920;DHT22;29578;51.946;5.874;2022-09-17T09:54:53;14.40;75.20
43920;DHT22;29578;51.946;5.874;2022-09-17T09:57:38;14.50;75.00
43920;DHT22;29578;51.946;5.874;2022-09-17T10:00:22;14.60;74.90
43920;DHT22;29578;51.946;5.874;2022-09-17T10:05:33;14.80;74.60
43920;DHT22;29578;51.946;5.874;2022-09-17T10:07:59;14.90;74.20
43920;DHT22;29578;51.946;5.874;2022-09-17T10:10:25;14.90;73.90
43920;DHT22;29578;51.946;5.874;2022-09-17T10:13:04;15.00;73.80
43920;DHT22;29578;51.946;5.874;2022-09-17T10:15:30;14.90;73.80
43920;DHT22;29578;51.946;5.874;2022-09-17T10:18:24;14.70;73.90
43920;DHT22;29578;51.946;5.874;2022-09-17T10:20:53;14.70;74.60
43920;DHT22;29578;51.946;5.874;2022-09-17T10:23:21;14.60;74.90
43920;DHT22;29578;51.946;5.874;2022-09-17T10:25:47;14.50;75.20
43920;DHT22;29578;51.946;5.874;2022-09-17T10:28:30;14.40;75.40
43920;DHT22;29578;51.946;5.874;2022-09-17T10:31:00;14.40;75.80
43920;DHT22;29578;51.946;5.874;2022-09-17T10:33:28;14.40;75.80
43920;DHT22;29578;51.946;5.874;2022-09-17T10:36:03;14.40;75.80
43920;DHT22;29578;51.946;5.874;2022-09-17T10:38:37;14.40;75.90
43920;DHT22;29578;51.946;5.874;2022-09-17T10:41:20;14.40;76.00
43920;DHT22;29578;51.946;5.874;2022-09-17T10:43:47;14.30;76.20
43920;DHT22;29578;51.946;5.874;2022-09-17T10:46:18;14.30;77.10
43920;DHT22;29578;51.946;5.874;2022-09-17T10:48:53;14.20;76.50
43920;DHT22;29578;51.946;5.874;2022-09-17T10:51:23;14.00;76.70
43920;DHT22;29578;51.946;5.874;2022-09-17T10:56:52;14.00;77.10
43920;DHT22;29578;51.946;5.874;2022-09-17T10:59:32;13.90;77.20
43920;DHT22;29578;51.946;5.874;2022-09-17T11:02:22;13.90;77.50
43920;DHT22;29578;51.946;5.874;2022-09-17T11:05:18;13.80;77.60
43920;DHT22;29578;51.946;5.874;2022-09-17T11:08:02;13.80;77.60
43920;DHT22;29578;51.946;5.874;2022-09-17T11:10:39;13.90;77.50
43920;DHT22;29578;51.946;5.874;2022-09-17T11:16:13;14.30;76.50
43920;DHT22;29578;51.946;5.874;2022-09-17T11:18:44;14.30;76.10
43920;DHT22;29578;51.946;5.874;2022-09-17T11:21:34;14.30;76.10
43920;DHT22;29578;51.946;5.874;2022-09-17T11:24:32;14.30;76.90
43920;DHT22;29578;51.946;5.874;2022-09-17T11:27:20;14.40;76.30
43920;DHT22;29578;51.946;5.874;2022-09-17T11:30:17;14.50;76.20
43920;DHT22;29578;51.946;5.874;2022-09-17T11:32:59;14.60;75.90
43920;DHT22;29578;51.946;5.874;2022-09-17T11:35:34;14.80;75.90
43920;DHT22;29578;51.946;5.874;2022-09-17T11:38:05;14.80;75.50
43920;DHT22;29578;51.946;5.874;2022-09-17T11:40:40;14.90;75.20
43920;DHT22;29578;51.946;5.874;2022-09-17T11:43:20;15.00;75.00
43920;DHT22;29578;51.946;5.874;2022-09-17T11:45:58;15.00;75.10
43920;DHT22;29578;51.946;5.874;2022-09-17T11:51:35;15.10;74.50
43920;DHT22;29578;51.946;5.874;2022-09-17T11:54:06;15.20;74.40
43920;DHT22;29578;51.946;5.874;2022-09-17T11:56:40;15.20;74.20
43920;DHT22;29578;51.946;5.874;2022-09-17T12:02:20;15.40;74.00
43920;DHT22;29578;51.946;5.874;2022-09-17T12:04:59;15.40;73.50
43920;DHT22;29578;51.946;5.874;2022-09-17T12:07:39;15.40;73.10
43920;DHT22;29578;51.946;5.874;2022-09-17T12:10:32;15.50;73.20
43920;DHT22;29578;51.946;5.874;2022-09-17T12:13:13;15.40;73.10
43920;DHT22;29578;51.946;5.874;2022-09-17T12:15:45;15.30;72.90
43920;DHT22;29578;51.946;5.874;2022-09-17T12:18:23;15.10;72.90
43920;DHT22;29578;51.946;5.874;2022-09-17T12:20:54;14.90;74.00
43920;DHT22;29578;51.946;5.874;2022-09-17T12:23:41;14.80;74.40
43920;DHT22;29578;51.946;5.874;2022-09-17T12:26:26;14.70;74.50
43920;DHT22;29578;51.946;5.874;2022-09-17T12:29:10;14.40;74.70
43920;DHT22;29578;51.946;5.874;2022-09-17T12:31:51;14.30;75.40
43920;DHT22;29578;51.946;5.874;2022-09-17T12:37:26;14.00;76.10
43920;DHT22;29578;51.946;5.874;2022-09-17T12:45:58;14.10;76.30
43920;DHT22;29578;51.946;5.874;2022-09-17T12:51:49;14.30;75.70
43920;DHT22;29578;51.946;5.874;2022-09-17T12:54:34;14.30;75.50
43920;DHT22;29578;51.946;5.874;2022-09-17T12:57:13;14.30;75.20
43920;DHT22;29578;51.946;5.874;2022-09-17T12:59:51;14.30;75.20
43920;DHT22;29578;51.946;5.874;2022-09-17T13:02:39;14.30;75.30
43920;DHT22;29578;51.946;5.874;2022-09-17T13:08:35;14.20;75.20
43920;DHT22;29578;51.946;5.874;2022-09-17T13:11:30;14.30;75.10
43920;DHT22;29578;51.946;5.874;2022-09-17T13:14:16;14.30;75.00
43920;DHT22;29578;51.946;5.874;2022-09-17T13:19:49;14.50;74.70
43920;DHT22;29578;51.946;5.874;2022-09-17T13:22:21;14.40;74.50
43920;DHT22;29578;51.946;5.874;2022-09-17T13:25:08;14.50;74.50
43920;DHT22;29578;51.946;5.874;2022-09-17T13:27:37;14.60;74.30
43920;DHT22;29578;51.946;5.874;2022-09-17T13:30:05;14.60;74.10
43920;DHT22;29578;51.946;5.874;2022-09-17T13:32:48;14.70;73.70
43920;DHT22;29578;51.946;5.874;2022-09-17T13:35:48;14.70;73.60
43920;DHT22;29578;51.946;5.874;2022-09-17T13:38:14;14.50;73.70
43920;DHT22;29578;51.946;5.874;2022-09-17T13:40:41;14.50;73.90
43920;DHT22;29578;51.946;5.874;2022-09-17T13:43:09;14.40;74.20
43920;DHT22;29578;51.946;5.874;2022-09-17T13:46:04;14.30;74.30
43920;DHT22;29578;51.946;5.874;2022-09-17T13:48:33;14.30;74.30
43920;DHT22;29578;51.946;5.874;2022-09-17T13:51:41;14.20;74.40
43920;DHT22;29578;51.946;5.874;2022-09-17T13:54:05;14.20;74.60
43920;DHT22;29578;51.946;5.874;2022-09-17T13:56:35;14.10;74.70
43920;DHT22;29578;51.946;5.874;2022-09-17T13:59:12;14.10;74.60
43920;DHT22;29578;51.946;5.874;2022-09-17T14:01:59;14.20;74.60
43920;DHT22;29578;51.946;5.874;2022-09-17T14:04:46;14.20;74.50
43920;DHT22;29578;51.946;5.874;2022-09-17T14:07:32;14.30;74.20
43920;DHT22;29578;51.946;5.874;2022-09-17T14:10:26;14.30;73.80
43920;DHT22;29578;51.946;5.874;2022-09-17T14:12:51;14.40;73.60
43920;DHT22;29578;51.946;5.874;2022-09-17T14:16:00;14.60;73.30
43920;DHT22;29578;51.946;5.874;2022-09-17T14:18:33;14.60;72.70
43920;DHT22;29578;51.946;5.874;2022-09-17T14:23:57;14.30;72.90
43920;DHT22;29578;51.946;5.874;2022-09-17T14:26:44;14.10;73.40
43920;DHT22;29578;51.946;5.874;2022-09-17T14:29:29;13.80;74.80
43920;DHT22;29578;51.946;5.874;2022-09-17T14:31:57;13.70;74.80
43920;DHT22;29578;51.946;5.874;2022-09-17T14:34:25;13.60;75.30
43920;DHT22;29578;51.946;5.874;2022-09-17T14:36:53;13.50;75.40
43920;DHT22;29578;51.946;5.874;2022-09-17T14:39:22;13.60;75.60
43920;DHT22;29578;51.946;5.874;2022-09-17T14:41:51;13.60;75.50
43920;DHT22;29578;51.946;5.874;2022-09-17T14:44:20;13.70;75.40
43920;DHT22;29578;51.946;5.874;2022-09-17T14:47:00;13.90;75.10
43920;DHT22;29578;51.946;5.874;2022-09-17T14:49:29;14.00;74.80
43920;DHT22;29578;51.946;5.874;2022-09-17T14:51:57;14.10;74.40
43920;DHT22;29578;51.946;5.874;2022-09-17T14:54:27;14.30;74.00
43920;DHT22;29578;51.946;5.874;2022-09-17T14:56:56;14.30;73.60
43920;DHT22;29578;51.946;5.874;2022-09-17T15:02:32;14.50;73.00
43920;DHT22;29578;51.946;5.874;2022-09-17T15:05:00;14.50;72.90
43920;DHT22;29578;51.946;5.874;2022-09-17T15:07:28;14.50;72.60
43920;DHT22;29578;51.946;5.874;2022-09-17T15:10:06;14.50;72.50
43920;DHT22;29578;51.946;5.874;2022-09-17T15:12:32;14.60;72.30
43920;DHT22;29578;51.946;5.874;2022-09-17T15:14:58;14.60;72.00
43920;DHT22;29578;51.946;5.874;2022-09-17T15:17:23;14.70;71.90
43920;DHT22;29578;51.946;5.874;2022-09-17T15:19:52;14.80;71.90
43920;DHT22;29578;51.946;5.874;2022-09-17T15:22:31;15.10;71.20
43920;DHT22;29578;51.946;5.874;2022-09-17T15:25:03;15.40;70.20
43920;DHT22;29578;51.946;5.874;2022-09-17T15:27:36;15.30;69.80
43920;DHT22;29578;51.946;5.874;2022-09-17T15:32:56;15.10;70.10
43920;DHT22;29578;51.946;5.874;2022-09-17T15:35:37;15.10;70.30
43920;DHT22;29578;51.946;5.874;2022-09-17T15:38:21;15.00;70.50
43920;DHT22;29578;51.946;5.874;2022-09-17T15:40:49;15.00;70.50
43920;DHT22;29578;51.946;5.874;2022-09-17T15:46:25;14.90;70.60
43920;DHT22;29578;51.946;5.874;2022-09-17T15:48:57;14.90;70.60
43920;DHT22;29578;51.946;5.874;2022-09-17T15:51:28;14.70;70.60
43920;DHT22;29578;51.946;5.874;2022-09-17T15:53:57;14.50;71.30
43920;DHT22;29578;51.946;5.874;2022-09-17T15:56:27;14.30;72.10
43920;DHT22;29578;51.946;5.874;2022-09-17T15:58:59;14.00;72.60
43920;DHT22;29578;51.946;5.874;2022-09-17T16:01:49;13.90;73.20
43920;DHT22;29578;51.946;5.874;2022-09-17T16:04:20;13.70;73.60
43920;DHT22;29578;51.946;5.874;2022-09-17T16:06:53;13.70;73.80
43920;DHT22;29578;51.946;5.874;2022-09-17T16:09:38;13.60;73.90
43920;DHT22;29578;51.946;5.874;2022-09-17T16:12:04;13.60;74.10
43920;DHT22;29578;51.946;5.874;2022-09-17T16:14:30;13.60;74.10
43920;DHT22;29578;51.946;5.874;2022-09-17T16:16:56;13.60;73.90
43920;DHT22;29578;51.946;5.874;2022-09-17T16:19:24;13.60;73.90
43920;DHT22;29578;51.946;5.874;2022-09-17T16:21:50;13.70;73.80
43920;DHT22;29578;51.946;5.874;2022-09-17T16:24:15;13.70;73.80
43920;DHT22;29578;51.946;5.874;2022-09-17T16:26:41;13.70;73.60
43920;DHT22;29578;51.946;5.874;2022-09-17T16:29:12;13.80;74.10
43920;DHT22;29578;51.946;5.874;2022-09-17T16:31:41;13.80;73.40
43920;DHT22;29578;51.946;5.874;2022-09-17T16:34:07;13.80;73.40
43920;DHT22;29578;51.946;5.874;2022-09-17T16:36:32;13.80;73.40
43920;DHT22;29578;51.946;5.874;2022-09-17T16:38:58;13.80;73.40
43920;DHT22;29578;51.946;5.874;2022-09-17T16:41:24;13.70;73.30
43920;DHT22;29578;51.946;5.874;2022-09-17T16:43:50;13.80;73.30
43920;DHT22;29578;51.946;5.874;2022-09-17T16:46:16;13.80;73.30
43920;DHT22;29578;51.946;5.874;2022-09-17T16:48:42;13.80;73.30
43920;DHT22;29578;51.946;5.874;2022-09-17T16:51:11;13.70;73.20
43920;DHT22;29578;51.946;5.874;2022-09-17T16:53:37;13.80;73.40
43920;DHT22;29578;51.946;5.874;2022-09-17T16:56:06;13.70;73.20
43920;DHT22;29578;51.946;5.874;2022-09-17T16:58:32;13.70;73.30
43920;DHT22;29578;51.946;5.874;2022-09-17T17:01:05;13.70;73.30
43920;DHT22;29578;51.946;5.874;2022-09-17T17:03:31;13.70;73.40
43920;DHT22;29578;51.946;5.874;2022-09-17T17:05:57;13.70;73.40
43920;DHT22;29578;51.946;5.874;2022-09-17T17:08:22;13.70;73.40
43920;DHT22;29578;51.946;5.874;2022-09-17T17:10:49;13.70;73.30
43920;DHT22;29578;51.946;5.874;2022-09-17T17:13:14;13.70;73.20
43920;DHT22;29578;51.946;5.874;2022-09-17T17:15:40;13.70;73.10
43920;DHT22;29578;51.946;5.874;2022-09-17T17:18:06;13.70;73.10